sensor_id;sensor_type;location;lat;lon;timestamp;temperature;humidity
12634;DHT22;6382;48.614;8.880;2024-02-21T00:02:21;4.30;99.90
12634;DHT22;6382;48.614;8.880;2024-02-21T00:04:47;4.30;99.90
12634;DHT22;6382;48.614;8.880;2024-02-21T00:07:12;4.20;99.90
12634;DHT22;6382;48.614;8.880;2024-02-21T00:09:38;4.20;99.90
12634;DHT22;6382;48.614;8.880;2024-02-21T00:12:04;4.20;99.90
12634;DHT22;6382;48.614;8.880;2024-02-21T00:14:30;4.20;99.90
12634;DHT22;6382;48.614;8.880;2024-02-21T00:16:56;4.20;99.90
12634;DHT22;6382;48.614;8.880;2024-02-21T00:19:21;4.20;99.90
12634;DHT22;6382;48.614;8.880;2024-02-21T00:21:47;4.20;99.90
12634;DHT22;6382;48.614;8.880;2024-02-21T00:24:12;4.20;99.90
12634;DHT22;6382;48.614;8.880;2024-02-21T00:26:38;4.30;99.90
12634;DHT22;6382;48.614;8.880;2024-02-21T00:29:03;4.30;99.90
12634;DHT22;6382;48.614;8.880;2024-02-21T00:31:29;4.30;99.90
12634;DHT22;6382;48.614;8.880;2024-02-21T00:33:54;4.40;99.90
12634;DHT22;6382;48.614;8.880;2024-02-21T00:36:20;4.40;99.90
12634;DHT22;6382;48.614;8.880;2024-02-21T00:38:45;4.40;99.90
12634;DHT22;6382;48.614;8.880;2024-02-21T00:41:11;4.40;99.90
12634;DHT22;6382;48.614;8.880;2024-02-21T00:43:36;4.40;99.90
12634;DHT22;6382;48.614;8.880;2024-02-21T00:46:02;4.40;99.90
12634;DHT22;6382;48.614;8.880;2024-02-21T00:48:27;4.40;99.90
12634;DHT22;6382;48.614;8.880;2024-02-21T00:50:53;6.00;99.90
12634;DHT22;6382;48.614;8.880;2024-02-21T00:53:18;5.30;99.90
12634;DHT22;6382;48.614;8.880;2024-02-21T00:55:44;5.40;99.90
12634;DHT22;6382;48.614;8.880;2024-02-21T00:58:09;4.40;99.90
12634;DHT22;6382;48.614;8.880;2024-02-21T01:00:35;5.30;99.90
12634;DHT22;6382;48.614;8.880;2024-02-21T01:03:01;4.50;99.90
12634;DHT22;6382;48.614;8.880;2024-02-21T01:05:26;4.60;99.90
12634;DHT22;6382;48.614;8.880;2024-02-21T01:07:54;4.60;99.90
12634;DHT22;6382;48.614;8.880;2024-02-21T01:10:20;4.60;99.90
12634;DHT22;6382;48.614;8.880;2024-02-21T01:12:45;4.60;99.90
12634;DHT22;6382;48.614;8.880;2024-02-21T01:15:11;4.70;99.90
12634;DHT22;6382;48.614;8.880;2024-02-21T01:17:37;4.70;99.90
12634;DHT22;6382;48.614;8.880;2024-02-21T01:20:02;4.70;99.90
12634;DHT22;6382;48.614;8.880;2024-02-21T01:22:30;4.80;99.90
12634;DHT22;6382;48.614;8.880;2024-02-21T01:24:56;4.80;99.90
12634;DHT22;6382;48.614;8.880;2024-02-21T01:27:21;4.70;99.90
12634;DHT22;6382;48.614;8.880;2024-02-21T01:29:47;4.70;99.90
12634;DHT22;6382;48.614;8.880;2024-02-21T01:32:15;4.70;99.90
12634;DHT22;6382;48.614;8.880;2024-02-21T01:34:40;4.80;99.90
12634;DHT22;6382;48.614;8.880;2024-02-21T01:37:06;4.80;99.90
12634;DHT22;6382;48.614;8.880;2024-02-21T01:39:33;4.80;99.90
12634;DHT22;6382;48.614;8.880;2024-02-21T01:41:58;4.80;99.90
12634;DHT22;6382;48.614;8.880;2024-02-21T01:44:24;4.70;99.90
12634;DHT22;6382;48.614;8.880;2024-02-21T01:46:49;4.70;99.90
12634;DHT22;6382;48.614;8.880;2024-02-21T01:49:17;4.70;99.90
12634;DHT22;6382;48.614;8.880;2024-02-21T01:51:42;4.60;99.90
12634;DHT22;6382;48.614;8.880;2024-02-21T01:54:08;4.60;99.90
12634;DHT22;6382;48.614;8.880;2024-02-21T01:56:33;4.60;99.90
12634;DHT22;6382;48.614;8.880;2024-02-21T01:58:59;4.60;99.90
12634;DHT22;6382;48.614;8.880;2024-02-21T02:01:25;4.60;99.90
12634;DHT22;6382;48.614;8.880;2024-02-21T02:03:50;4.60;99.90
12634;DHT22;6382;48.614;8.880;2024-02-21T02:06:16;4.60;99.90
12634;DHT22;6382;48.614;8.880;2024-02-21T02:08:41;4.50;99.90
12634;DHT22;6382;48.614;8.880;2024-02-21T02:11:07;4.50;99.90
12634;DHT22;6382;48.614;8.880;2024-02-21T02:13:38;4.50;99.90
12634;DHT22;6382;48.614;8.880;2024-02-21T02:16:04;4.50;99.90
12634;DHT22;6382;48.614;8.880;2024-02-21T02:18:30;4.50;99.90
12634;DHT22;6382;48.614;8.880;2024-02-21T02:20:55;4.50;99.90
12634;DHT22;6382;48.614;8.880;2024-02-21T02:23:28;4.50;99.90
12634;DHT22;6382;48.614;8.880;2024-02-21T02:25:54;4.50;99.90
12634;DHT22;6382;48.614;8.880;2024-02-21T02:28:20;4.50;99.90
12634;DHT22;6382;48.614;8.880;2024-02-21T02:30:46;4.60;99.90
12634;DHT22;6382;48.614;8.880;2024-02-21T02:33:11;4.60;99.90
12634;DHT22;6382;48.614;8.880;2024-02-21T02:35:37;4.60;99.90
12634;DHT22;6382;48.614;8.880;2024-02-21T02:38:03;4.60;99.90
12634;DHT22;6382;48.614;8.880;2024-02-21T02:40:29;4.50;99.90
12634;DHT22;6382;48.614;8.880;2024-02-21T02:42:54;4.60;99.90
12634;DHT22;6382;48.614;8.880;2024-02-21T02:45:23;4.60;99.90
12634;DHT22;6382;48.614;8.880;2024-02-21T02:47:52;4.60;99.90
12634;DHT22;6382;48.614;8.880;2024-02-21T02:50:17;5.30;99.90
12634;DHT22;6382;48.614;8.880;2024-02-21T02:52:43;4.60;99.90
12634;DHT22;6382;48.614;8.880;2024-02-21T02:55:08;4.60;99.90
12634;DHT22;6382;48.614;8.880;2024-02-21T02:57:34;4.60;99.90
12634;DHT22;6382;48.614;8.880;2024-02-21T02:59:59;4.60;99.90
12634;DHT22;6382;48.614;8.880;2024-02-21T03:02:25;4.60;99.90
12634;DHT22;6382;48.614;8.880;2024-02-21T03:04:50;4.60;99.90
12634;DHT22;6382;48.614;8.880;2024-02-21T03:07:16;4.60;99.90
12634;DHT22;6382;48.614;8.880;2024-02-21T03:09:41;4.50;99.90
12634;DHT22;6382;48.614;8.880;2024-02-21T03:12:10;4.60;99.90
12634;DHT22;6382;48.614;8.880;2024-02-21T03:14:35;4.60;99.90
12634;DHT22;6382;48.614;8.880;2024-02-21T03:17:01;4.60;99.90
12634;DHT22;6382;48.614;8.880;2024-02-21T03:19:27;4.60;99.90
12634;DHT22;6382;48.614;8.880;2024-02-21T03:21:53;4.50;99.90
12634;DHT22;6382;48.614;8.880;2024-02-21T03:24:19;4.50;99.90
12634;DHT22;6382;48.614;8.880;2024-02-21T03:26:45;4.50;99.90
12634;DHT22;6382;48.614;8.880;2024-02-21T03:29:14;4.40;99.90
12634;DHT22;6382;48.614;8.880;2024-02-21T03:31:39;4.40;99.90
12634;DHT22;6382;48.614;8.880;2024-02-21T03:34:05;4.40;99.90
12634;DHT22;6382;48.614;8.880;2024-02-21T03:36:30;4.40;99.90
12634;DHT22;6382;48.614;8.880;2024-02-21T03:38:56;4.40;99.90
12634;DHT22;6382;48.614;8.880;2024-02-21T03:41:21;4.40;99.90
12634;DHT22;6382;48.614;8.880;2024-02-21T03:43:47;4.30;99.90
12634;DHT22;6382;48.614;8.880;2024-02-21T03:46:13;4.40;99.90
12634;DHT22;6382;48.614;8.880;2024-02-21T03:48:38;4.40;99.90
12634;DHT22;6382;48.614;8.880;2024-02-21T03:51:04;4.40;99.90
12634;DHT22;6382;48.614;8.880;2024-02-21T03:53:30;4.30;99.90
12634;DHT22;6382;48.614;8.880;2024-02-21T03:55:55;4.30;99.90
12634;DHT22;6382;48.614;8.880;2024-02-21T03:58:21;4.20;99.90
12634;DHT22;6382;48.614;8.880;2024-02-21T04:00:47;4.30;99.90
12634;DHT22;6382;48.614;8.880;2024-02-21T04:03:13;4.30;99.90
12634;DHT22;6382;48.614;8.880;2024-02-21T04:05:38;4.30;99.90
12634;DHT22;6382;48.614;8.880;2024-02-21T04:08:04;4.40;99.90
12634;DHT22;6382;48.614;8.880;2024-02-21T04:10:30;4.30;99.90
12634;DHT22;6382;48.614;8.880;2024-02-21T04:12:55;4.40;99.90
12634;DHT22;6382;48.614;8.880;2024-02-21T04:15:21;4.30;99.90
12634;DHT22;6382;48.614;8.880;2024-02-21T04:17:46;4.40;99.90
12634;DHT22;6382;48.614;8.880;2024-02-21T04:20:16;4.40;99.90
12634;DHT22;6382;48.614;8.880;2024-02-21T04:22:44;4.40;99.90
12634;DHT22;6382;48.614;8.880;2024-02-21T04:25:10;4.40;99.90
12634;DHT22;6382;48.614;8.880;2024-02-21T04:27:39;4.40;99.90
12634;DHT22;6382;48.614;8.880;2024-02-21T04:30:04;4.40;99.90
12634;DHT22;6382;48.614;8.880;2024-02-21T04:32:30;5.40;99.90
12634;DHT22;6382;48.614;8.880;2024-02-21T04:34:55;4.40;99.90
12634;DHT22;6382;48.614;8.880;2024-02-21T04:37:21;4.40;99.90
12634;DHT22;6382;48.614;8.880;2024-02-21T04:39:48;4.30;99.90
12634;DHT22;6382;48.614;8.880;2024-02-21T04:42:13;4.30;99.90
12634;DHT22;6382;48.614;8.880;2024-02-21T04:44:39;4.30;99.90
12634;DHT22;6382;48.614;8.880;2024-02-21T04:47:04;4.30;99.90
12634;DHT22;6382;48.614;8.880;2024-02-21T04:49:30;4.20;99.90
12634;DHT22;6382;48.614;8.880;2024-02-21T04:51:55;4.20;99.90
12634;DHT22;6382;48.614;8.880;2024-02-21T04:54:21;4.20;99.90
12634;DHT22;6382;48.614;8.880;2024-02-21T04:56:46;4.20;99.90
12634;DHT22;6382;48.614;8.880;2024-02-21T04:59:12;4.10;99.90
12634;DHT22;6382;48.614;8.880;2024-02-21T05:01:37;4.10;99.90
12634;DHT22;6382;48.614;8.880;2024-02-21T05:04:03;4.00;99.90
12634;DHT22;6382;48.614;8.880;2024-02-21T05:06:28;4.00;99.90
12634;DHT22;6382;48.614;8.880;2024-02-21T05:08:54;4.00;99.90
12634;DHT22;6382;48.614;8.880;2024-02-21T05:11:21;4.00;99.90
12634;DHT22;6382;48.614;8.880;2024-02-21T05:13:46;3.90;99.90
12634;DHT22;6382;48.614;8.880;2024-02-21T05:16:12;5.60;99.90
12634;DHT22;6382;48.614;8.880;2024-02-21T05:18:37;3.80;99.90
12634;DHT22;6382;48.614;8.880;2024-02-21T05:21:03;3.80;99.90
12634;DHT22;6382;48.614;8.880;2024-02-21T05:23:28;3.70;99.90
12634;DHT22;6382;48.614;8.880;2024-02-21T05:25:54;3.80;99.90
12634;DHT22;6382;48.614;8.880;2024-02-21T05:28:19;3.80;99.90
12634;DHT22;6382;48.614;8.880;2024-02-21T05:30:45;3.80;99.90
12634;DHT22;6382;48.614;8.880;2024-02-21T05:33:10;3.70;99.90
12634;DHT22;6382;48.614;8.880;2024-02-21T05:35:36;3.80;99.90
12634;DHT22;6382;48.614;8.880;2024-02-21T05:38:02;3.80;99.90
12634;DHT22;6382;48.614;8.880;2024-02-21T05:40:31;3.80;99.90
12634;DHT22;6382;48.614;8.880;2024-02-21T05:42:57;3.80;99.90
12634;DHT22;6382;48.614;8.880;2024-02-21T05:45:23;3.70;99.90
12634;DHT22;6382;48.614;8.880;2024-02-21T05:47:48;3.70;99.90
12634;DHT22;6382;48.614;8.880;2024-02-21T05:50:15;3.70;99.90
12634;DHT22;6382;48.614;8.880;2024-02-21T05:52:40;3.70;99.90
12634;DHT22;6382;48.614;8.880;2024-02-21T05:55:06;3.70;99.90
12634;DHT22;6382;48.614;8.880;2024-02-21T05:57:32;3.60;99.90
12634;DHT22;6382;48.614;8.880;2024-02-21T05:59:57;3.60;99.90
12634;DHT22;6382;48.614;8.880;2024-02-21T06:02:23;3.70;99.90
12634;DHT22;6382;48.614;8.880;2024-02-21T06:04:48;3.60;99.90
12634;DHT22;6382;48.614;8.880;2024-02-21T06:07:14;3.60;99.90
12634;DHT22;6382;48.614;8.880;2024-02-21T06:09:39;3.60;99.90
12634;DHT22;6382;48.614;8.880;2024-02-21T06:12:05;3.60;99.90
12634;DHT22;6382;48.614;8.880;2024-02-21T06:14:30;3.60;99.90
12634;DHT22;6382;48.614;8.880;2024-02-21T06:16:56;3.60;99.90
12634;DHT22;6382;48.614;8.880;2024-02-21T06:19:21;3.60;99.90
12634;DHT22;6382;48.614;8.880;2024-02-21T06:21:47;3.50;99.90
12634;DHT22;6382;48.614;8.880;2024-02-21T06:24:12;3.50;99.90
12634;DHT22;6382;48.614;8.880;2024-02-21T06:26:38;3.50;99.90
12634;DHT22;6382;48.614;8.880;2024-02-21T06:29:05;3.40;99.90
12634;DHT22;6382;48.614;8.880;2024-02-21T06:31:31;3.40;99.90
12634;DHT22;6382;48.614;8.880;2024-02-21T06:33:57;3.30;99.90
12634;DHT22;6382;48.614;8.880;2024-02-21T06:36:22;3.20;99.90
12634;DHT22;6382;48.614;8.880;2024-02-21T06:38:48;3.10;99.90
12634;DHT22;6382;48.614;8.880;2024-02-21T06:41:19;3.00;99.90
12634;DHT22;6382;48.614;8.880;2024-02-21T06:43:45;2.90;99.90
12634;DHT22;6382;48.614;8.880;2024-02-21T06:46:11;2.90;99.90
12634;DHT22;6382;48.614;8.880;2024-02-21T06:48:37;2.90;99.90
12634;DHT22;6382;48.614;8.880;2024-02-21T06:51:03;2.90;99.90
12634;DHT22;6382;48.614;8.880;2024-02-21T06:53:28;2.90;99.90
12634;DHT22;6382;48.614;8.880;2024-02-21T06:55:54;3.00;99.90
12634;DHT22;6382;48.614;8.880;2024-02-21T06:58:19;3.00;99.90
12634;DHT22;6382;48.614;8.880;2024-02-21T07:00:45;3.10;99.90
12634;DHT22;6382;48.614;8.880;2024-02-21T07:03:10;3.10;99.90
12634;DHT22;6382;48.614;8.880;2024-02-21T07:05:36;3.10;99.90
12634;DHT22;6382;48.614;8.880;2024-02-21T07:08:01;3.20;99.90
12634;DHT22;6382;48.614;8.880;2024-02-21T07:10:28;3.20;99.90
12634;DHT22;6382;48.614;8.880;2024-02-21T07:12:54;3.30;99.90
12634;DHT22;6382;48.614;8.880;2024-02-21T07:15:20;3.40;99.90
12634;DHT22;6382;48.614;8.880;2024-02-21T07:17:46;3.50;99.90
12634;DHT22;6382;48.614;8.880;2024-02-21T07:20:11;3.60;99.90
12634;DHT22;6382;48.614;8.880;2024-02-21T07:22:36;3.70;99.90
12634;DHT22;6382;48.614;8.880;2024-02-21T07:25:02;3.80;99.90
12634;DHT22;6382;48.614;8.880;2024-02-21T07:27:28;3.90;99.90
12634;DHT22;6382;48.614;8.880;2024-02-21T07:29:56;4.10;99.90
12634;DHT22;6382;48.614;8.880;2024-02-21T07:32:21;4.10;99.90
12634;DHT22;6382;48.614;8.880;2024-02-21T07:34:47;4.30;99.90
12634;DHT22;6382;48.614;8.880;2024-02-21T07:37:12;4.40;99.90
12634;DHT22;6382;48.614;8.880;2024-02-21T07:39:38;4.40;99.90
12634;DHT22;6382;48.614;8.880;2024-02-21T07:42:03;4.50;99.90
12634;DHT22;6382;48.614;8.880;2024-02-21T07:44:29;4.60;99.90
12634;DHT22;6382;48.614;8.880;2024-02-21T07:46:57;4.70;99.90
12634;DHT22;6382;48.614;8.880;2024-02-21T07:49:22;4.80;99.90
12634;DHT22;6382;48.614;8.880;2024-02-21T07:51:47;6.10;99.90
12634;DHT22;6382;48.614;8.880;2024-02-21T07:54:13;4.90;99.90
12634;DHT22;6382;48.614;8.880;2024-02-21T07:56:39;4.90;99.90
12634;DHT22;6382;48.614;8.880;2024-02-21T07:59:05;4.40;99.90
12634;DHT22;6382;48.614;8.880;2024-02-21T08:01:30;5.00;99.90
12634;DHT22;6382;48.614;8.880;2024-02-21T08:03:56;5.10;99.90
12634;DHT22;6382;48.614;8.880;2024-02-21T08:06:21;5.10;99.90
12634;DHT22;6382;48.614;8.880;2024-02-21T08:08:47;5.20;99.90
12634;DHT22;6382;48.614;8.880;2024-02-21T08:11:12;5.20;99.90
12634;DHT22;6382;48.614;8.880;2024-02-21T08:13:38;5.30;99.90
12634;DHT22;6382;48.614;8.880;2024-02-21T08:16:04;5.30;99.90
12634;DHT22;6382;48.614;8.880;2024-02-21T08:18:29;5.30;99.90
12634;DHT22;6382;48.614;8.880;2024-02-21T08:20:55;5.40;99.90
12634;DHT22;6382;48.614;8.880;2024-02-21T08:23:23;5.40;99.90
12634;DHT22;6382;48.614;8.880;2024-02-21T08:25:49;5.50;99.90
12634;DHT22;6382;48.614;8.880;2024-02-21T08:28:15;5.50;99.90
12634;DHT22;6382;48.614;8.880;2024-02-21T08:30:40;5.50;99.90
12634;DHT22;6382;48.614;8.880;2024-02-21T08:33:09;5.60;99.90
12634;DHT22;6382;48.614;8.880;2024-02-21T08:35:35;5.70;99.90
12634;DHT22;6382;48.614;8.880;2024-02-21T08:38:00;5.80;99.90
12634;DHT22;6382;48.614;8.880;2024-02-21T08:40:26;7.30;99.90
12634;DHT22;6382;48.614;8.880;2024-02-21T08:42:51;5.90;99.90
12634;DHT22;6382;48.614;8.880;2024-02-21T08:45:17;6.90;99.90
12634;DHT22;6382;48.614;8.880;2024-02-21T08:47:42;6.00;99.90
12634;DHT22;6382;48.614;8.880;2024-02-21T08:50:08;6.10;99.90
12634;DHT22;6382;48.614;8.880;2024-02-21T08:52:36;6.10;99.90
12634;DHT22;6382;48.614;8.880;2024-02-21T08:55:02;6.10;99.90
12634;DHT22;6382;48.614;8.880;2024-02-21T08:57:27;6.20;99.90
12634;DHT22;6382;48.614;8.880;2024-02-21T08:59:53;7.60;99.90
12634;DHT22;6382;48.614;8.880;2024-02-21T09:02:19;6.30;99.90
12634;DHT22;6382;48.614;8.880;2024-02-21T09:04:44;6.30;99.90
12634;DHT22;6382;48.614;8.880;2024-02-21T09:07:10;6.40;99.90
12634;DHT22;6382;48.614;8.880;2024-02-21T09:09:36;6.60;99.90
12634;DHT22;6382;48.614;8.880;2024-02-21T09:12:04;6.60;99.90
12634;DHT22;6382;48.614;8.880;2024-02-21T09:14:31;6.50;99.90
12634;DHT22;6382;48.614;8.880;2024-02-21T09:16:56;6.60;99.90
12634;DHT22;6382;48.614;8.880;2024-02-21T09:19:22;6.60;99.90
12634;DHT22;6382;48.614;8.880;2024-02-21T09:21:47;7.50;99.90
12634;DHT22;6382;48.614;8.880;2024-02-21T09:24:13;8.00;99.90
12634;DHT22;6382;48.614;8.880;2024-02-21T09:26:38;6.70;99.90
12634;DHT22;6382;48.614;8.880;2024-02-21T09:29:04;6.80;99.90
12634;DHT22;6382;48.614;8.880;2024-02-21T09:31:29;6.80;99.90
12634;DHT22;6382;48.614;8.880;2024-02-21T09:33:55;7.70;99.90
12634;DHT22;6382;48.614;8.880;2024-02-21T09:36:20;7.60;99.90
12634;DHT22;6382;48.614;8.880;2024-02-21T09:38:46;8.50;99.90
12634;DHT22;6382;48.614;8.880;2024-02-21T09:43:38;8.40;99.90
12634;DHT22;6382;48.614;8.880;2024-02-21T09:46:05;7.40;99.90
12634;DHT22;6382;48.614;8.880;2024-02-21T09:48:35;7.30;99.90
12634;DHT22;6382;48.614;8.880;2024-02-21T09:51:05;8.00;99.90
12634;DHT22;6382;48.614;8.880;2024-02-21T09:53:31;7.50;99.90
12634;DHT22;6382;48.614;8.880;2024-02-21T09:55:57;7.60;99.90
12634;DHT22;6382;48.614;8.880;2024-02-21T09:58:24;7.70;99.90
12634;DHT22;6382;48.614;8.880;2024-02-21T10:00:52;7.70;99.90
12634;DHT22;6382;48.614;8.880;2024-02-21T10:03:18;7.90;99.90
12634;DHT22;6382;48.614;8.880;2024-02-21T10:05:47;7.90;99.90
12634;DHT22;6382;48.614;8.880;2024-02-21T10:08:13;8.00;99.90
12634;DHT22;6382;48.614;8.880;2024-02-21T10:10:43;8.20;99.90
12634;DHT22;6382;48.614;8.880;2024-02-21T10:13:09;8.20;99.90
12634;DHT22;6382;48.614;8.880;2024-02-21T10:15:34;9.70;99.90
12634;DHT22;6382;48.614;8.880;2024-02-21T10:18:00;9.60;99.90
12634;DHT22;6382;48.614;8.880;2024-02-21T10:20:26;8.80;99.90
12634;DHT22;6382;48.614;8.880;2024-02-21T10:23:05;9.70;99.90
12634;DHT22;6382;48.614;8.880;2024-02-21T10:25:34;8.50;99.90
12634;DHT22;6382;48.614;8.880;2024-02-21T10:28:01;8.60;99.90
12634;DHT22;6382;48.614;8.880;2024-02-21T10:30:27;8.70;99.90
12634;DHT22;6382;48.614;8.880;2024-02-21T10:32:53;9.90;99.90
12634;DHT22;6382;48.614;8.880;2024-02-21T10:35:31;8.70;99.90
12634;DHT22;6382;48.614;8.880;2024-02-21T10:37:57;8.80;99.90
12634;DHT22;6382;48.614;8.880;2024-02-21T10:40:24;10.30;99.90
12634;DHT22;6382;48.614;8.880;2024-02-21T10:42:51;9.00;99.90
12634;DHT22;6382;48.614;8.880;2024-02-21T10:45:19;9.10;99.90
12634;DHT22;6382;48.614;8.880;2024-02-21T10:47:46;9.10;99.90
12634;DHT22;6382;48.614;8.880;2024-02-21T10:50:15;9.70;99.90
12634;DHT22;6382;48.614;8.880;2024-02-21T10:52:51;9.20;99.90
12634;DHT22;6382;48.614;8.880;2024-02-21T10:55:24;9.20;99.90
12634;DHT22;6382;48.614;8.880;2024-02-21T10:57:52;9.30;99.90
12634;DHT22;6382;48.614;8.880;2024-02-21T11:00:18;9.30;99.90
12634;DHT22;6382;48.614;8.880;2024-02-21T11:02:44;9.30;99.90
12634;DHT22;6382;48.614;8.880;2024-02-21T11:05:10;9.50;99.90
12634;DHT22;6382;48.614;8.880;2024-02-21T11:07:36;10.10;99.90
12634;DHT22;6382;48.614;8.880;2024-02-21T11:10:02;9.60;99.90
12634;DHT22;6382;48.614;8.880;2024-02-21T11:12:31;9.60;99.90
12634;DHT22;6382;48.614;8.880;2024-02-21T11:15:06;9.70;99.90
12634;DHT22;6382;48.614;8.880;2024-02-21T11:17:32;9.70;99.90
12634;DHT22;6382;48.614;8.880;2024-02-21T11:19:57;10.40;99.90
12634;DHT22;6382;48.614;8.880;2024-02-21T11:22:24;9.70;99.90
12634;DHT22;6382;48.614;8.880;2024-02-21T11:24:54;9.90;99.90
12634;DHT22;6382;48.614;8.880;2024-02-21T11:27:21;9.80;99.90
12634;DHT22;6382;48.614;8.880;2024-02-21T11:29:47;9.80;99.90
12634;DHT22;6382;48.614;8.880;2024-02-21T11:32:16;9.80;99.90
12634;DHT22;6382;48.614;8.880;2024-02-21T11:37:23;9.90;99.90
12634;DHT22;6382;48.614;8.880;2024-02-21T11:39:49;9.90;99.90
12634;DHT22;6382;48.614;8.880;2024-02-21T11:42:15;9.90;99.90
12634;DHT22;6382;48.614;8.880;2024-02-21T11:44:40;10.00;99.90
12634;DHT22;6382;48.614;8.880;2024-02-21T11:47:08;10.00;99.90
12634;DHT22;6382;48.614;8.880;2024-02-21T11:49:43;10.10;99.90
12634;DHT22;6382;48.614;8.880;2024-02-21T11:52:08;10.10;99.90
12634;DHT22;6382;48.614;8.880;2024-02-21T11:54:34;10.20;99.90
12634;DHT22;6382;48.614;8.880;2024-02-21T11:57:00;10.20;99.90
12634;DHT22;6382;48.614;8.880;2024-02-21T11:59:26;11.10;99.90
12634;DHT22;6382;48.614;8.880;2024-02-21T12:01:52;10.40;99.90
12634;DHT22;6382;48.614;8.880;2024-02-21T12:04:18;10.40;99.90
12634;DHT22;6382;48.614;8.880;2024-02-21T12:06:44;10.40;99.90
12634;DHT22;6382;48.614;8.880;2024-02-21T12:09:13;10.60;99.90
12634;DHT22;6382;48.614;8.880;2024-02-21T12:11:39;10.60;99.90
12634;DHT22;6382;48.614;8.880;2024-02-21T12:14:04;11.60;99.90
12634;DHT22;6382;48.614;8.880;2024-02-21T12:16:31;11.50;99.90
12634;DHT22;6382;48.614;8.880;2024-02-21T12:18:57;12.10;99.90
12634;DHT22;6382;48.614;8.880;2024-02-21T12:21:26;12.30;99.90
12634;DHT22;6382;48.614;8.880;2024-02-21T12:23:53;10.70;99.90
12634;DHT22;6382;48.614;8.880;2024-02-21T12:26:18;10.70;99.90
12634;DHT22;6382;48.614;8.880;2024-02-21T12:28:44;10.70;99.90
12634;DHT22;6382;48.614;8.880;2024-02-21T12:31:10;11.20;99.90
12634;DHT22;6382;48.614;8.880;2024-02-21T12:33:35;11.20;99.90
12634;DHT22;6382;48.614;8.880;2024-02-21T12:36:01;12.20;99.90
12634;DHT22;6382;48.614;8.880;2024-02-21T12:38:26;10.70;99.90
12634;DHT22;6382;48.614;8.880;2024-02-21T12:40:52;10.70;99.90
12634;DHT22;6382;48.614;8.880;2024-02-21T12:43:17;10.70;99.90
12634;DHT22;6382;48.614;8.880;2024-02-21T12:45:43;12.20;99.90
12634;DHT22;6382;48.614;8.880;2024-02-21T12:50:48;10.70;99.90
12634;DHT22;6382;48.614;8.880;2024-02-21T12:53:13;10.70;99.90
12634;DHT22;6382;48.614;8.880;2024-02-21T12:55:41;10.70;99.90
12634;DHT22;6382;48.614;8.880;2024-02-21T12:58:06;10.80;99.90
12634;DHT22;6382;48.614;8.880;2024-02-21T13:00:32;10.80;99.90
12634;DHT22;6382;48.614;8.880;2024-02-21T13:02:58;10.90;99.90
12634;DHT22;6382;48.614;8.880;2024-02-21T13:05:23;10.90;99.90
12634;DHT22;6382;48.614;8.880;2024-02-21T13:07:49;11.00;99.90
12634;DHT22;6382;48.614;8.880;2024-02-21T13:10:14;11.00;99.90
12634;DHT22;6382;48.614;8.880;2024-02-21T13:12:40;11.10;99.90
12634;DHT22;6382;48.614;8.880;2024-02-21T13:15:06;11.00;99.90
12634;DHT22;6382;48.614;8.880;2024-02-21T13:17:31;11.00;99.90
12634;DHT22;6382;48.614;8.880;2024-02-21T13:19:57;11.90;99.90
12634;DHT22;6382;48.614;8.880;2024-02-21T13:22:22;11.00;99.90
12634;DHT22;6382;48.614;8.880;2024-02-21T13:24:51;11.00;99.90
12634;DHT22;6382;48.614;8.880;2024-02-21T13:27:16;11.10;99.90
12634;DHT22;6382;48.614;8.880;2024-02-21T13:29:42;11.10;99.90
12634;DHT22;6382;48.614;8.880;2024-02-21T13:32:07;11.10;99.90
12634;DHT22;6382;48.614;8.880;2024-02-21T13:34:33;11.00;99.90
12634;DHT22;6382;48.614;8.880;2024-02-21T13:36:59;11.10;99.90
12634;DHT22;6382;48.614;8.880;2024-02-21T13:39:24;11.10;99.90
12634;DHT22;6382;48.614;8.880;2024-02-21T13:41:50;11.10;99.90
12634;DHT22;6382;48.614;8.880;2024-02-21T13:44:15;11.20;99.90
12634;DHT22;6382;48.614;8.880;2024-02-21T13:46:41;11.20;99.90
12634;DHT22;6382;48.614;8.880;2024-02-21T13:49:08;11.20;99.90
12634;DHT22;6382;48.614;8.880;2024-02-21T13:51:34;11.20;99.90
12634;DHT22;6382;48.614;8.880;2024-02-21T13:54:03;11.10;99.90
12634;DHT22;6382;48.614;8.880;2024-02-21T13:56:34;11.20;99.90
12634;DHT22;6382;48.614;8.880;2024-02-21T13:59:00;11.20;99.90
12634;DHT22;6382;48.614;8.880;2024-02-21T14:01:26;11.20;99.90
12634;DHT22;6382;48.614;8.880;2024-02-21T14:03:53;11.20;99.90
12634;DHT22;6382;48.614;8.880;2024-02-21T14:06:18;11.20;99.90
12634;DHT22;6382;48.614;8.880;2024-02-21T14:08:44;11.20;99.90
12634;DHT22;6382;48.614;8.880;2024-02-21T14:11:10;11.10;99.90
12634;DHT22;6382;48.614;8.880;2024-02-21T14:13:35;11.10;99.90
12634;DHT22;6382;48.614;8.880;2024-02-21T14:16:01;11.10;99.90
12634;DHT22;6382;48.614;8.880;2024-02-21T14:18:27;11.10;99.90
12634;DHT22;6382;48.614;8.880;2024-02-21T14:20:52;11.00;99.90
12634;DHT22;6382;48.614;8.880;2024-02-21T14:23:18;11.00;99.90
12634;DHT22;6382;48.614;8.880;2024-02-21T14:25:43;11.00;99.90
12634;DHT22;6382;48.614;8.880;2024-02-21T14:28:09;11.00;99.90
12634;DHT22;6382;48.614;8.880;2024-02-21T14:30:34;11.10;99.90
12634;DHT22;6382;48.614;8.880;2024-02-21T14:33:00;11.10;99.90
12634;DHT22;6382;48.614;8.880;2024-02-21T14:35:25;12.50;99.90
12634;DHT22;6382;48.614;8.880;2024-02-21T14:37:51;11.10;99.90
12634;DHT22;6382;48.614;8.880;2024-02-21T14:40:18;11.00;99.90
12634;DHT22;6382;48.614;8.880;2024-02-21T14:42:44;11.00;99.90
12634;DHT22;6382;48.614;8.880;2024-02-21T14:45:10;10.90;99.90
12634;DHT22;6382;48.614;8.880;2024-02-21T14:47:35;10.90;99.90
12634;DHT22;6382;48.614;8.880;2024-02-21T14:50:02;10.80;99.90
12634;DHT22;6382;48.614;8.880;2024-02-21T14:52:27;10.80;99.90
12634;DHT22;6382;48.614;8.880;2024-02-21T14:54:53;10.80;99.90
12634;DHT22;6382;48.614;8.880;2024-02-21T14:57:19;10.70;99.90
12634;DHT22;6382;48.614;8.880;2024-02-21T14:59:45;10.70;99.90
12634;DHT22;6382;48.614;8.880;2024-02-21T15:02:11;10.60;99.90
12634;DHT22;6382;48.614;8.880;2024-02-21T15:04:36;10.60;99.90
12634;DHT22;6382;48.614;8.880;2024-02-21T15:07:02;10.60;99.90
12634;DHT22;6382;48.614;8.880;2024-02-21T15:09:28;10.60;99.90
12634;DHT22;6382;48.614;8.880;2024-02-21T15:11:53;10.60;99.90
12634;DHT22;6382;48.614;8.880;2024-02-21T15:14:19;10.60;99.90
12634;DHT22;6382;48.614;8.880;2024-02-21T15:16:45;10.50;99.90
12634;DHT22;6382;48.614;8.880;2024-02-21T15:19:11;10.50;99.90
12634;DHT22;6382;48.614;8.880;2024-02-21T15:21:36;10.60;99.90
12634;DHT22;6382;48.614;8.880;2024-02-21T15:24:02;10.60;99.90
12634;DHT22;6382;48.614;8.880;2024-02-21T15:26:31;10.50;99.90
12634;DHT22;6382;48.614;8.880;2024-02-21T15:28:57;10.50;99.90
12634;DHT22;6382;48.614;8.880;2024-02-21T15:31:22;10.40;99.90
12634;DHT22;6382;48.614;8.880;2024-02-21T15:33:51;10.40;99.90
12634;DHT22;6382;48.614;8.880;2024-02-21T15:36:17;10.40;99.90
12634;DHT22;6382;48.614;8.880;2024-02-21T15:38:43;10.30;99.90
12634;DHT22;6382;48.614;8.880;2024-02-21T15:41:11;10.30;99.90
12634;DHT22;6382;48.614;8.880;2024-02-21T15:43:36;10.30;99.90
12634;DHT22;6382;48.614;8.880;2024-02-21T15:46:03;10.30;99.90
12634;DHT22;6382;48.614;8.880;2024-02-21T15:48:29;10.20;99.90
12634;DHT22;6382;48.614;8.880;2024-02-21T15:50:56;10.30;99.90
12634;DHT22;6382;48.614;8.880;2024-02-21T15:53:21;10.20;99.90
12634;DHT22;6382;48.614;8.880;2024-02-21T15:55:48;10.20;99.90
12634;DHT22;6382;48.614;8.880;2024-02-21T15:58:14;10.20;99.90